createdAt,value
2017-10-01T00:00:45.444Z,79.82
2017-10-01T00:01:42.706Z,79.82
2017-10-01T00:02:39.978Z,79.80
2017-10-01T00:03:37.232Z,79.82
2017-10-01T00:04:34.462Z,79.82
2017-10-01T00:05:31.737Z,79.84
2017-10-01T00:06:28.965Z,79.83
2017-10-01T00:07:26.271Z,79.85
2017-10-01T00:08:23.510Z,79.86
2017-10-01T00:09:20.792Z,79.85
2017-10-01T00:10:18.032Z,79.87
2017-10-01T00:11:15.331Z,79.89
2017-10-01T00:12:12.585Z,79.89
2017-10-01T00:13:09.837Z,79.90
2017-10-01T00:14:07.068Z,79.90
2017-10-01T00:15:04.321Z,79.93
2017-10-01T00:16:01.582Z,79.90
2017-10-01T00:16:58.856Z,79.92
2017-10-01T00:17:56.106Z,79.94
2017-10-01T00:18:54.110Z,79.90
2017-10-01T00:19:51.407Z,79.89
2017-10-01T00:20:48.710Z,79.93
2017-10-01T00:21:45.929Z,79.93
2017-10-01T00:22:43.341Z,79.90
2017-10-01T00:23:40.606Z,79.89
2017-10-01T00:24:37.855Z,79.89
2017-10-01T00:25:35.081Z,79.94
2017-10-01T00:26:32.337Z,79.97
2017-10-01T00:27:29.577Z,79.97
2017-10-01T00:28:26.838Z,80.00
2017-10-01T00:29:24.069Z,80.00
2017-10-01T00:30:21.979Z,80.03
2017-10-01T00:31:19.219Z,80.05
2017-10-01T00:32:16.489Z,80.07
2017-10-01T00:33:13.753Z,80.10
2017-10-01T00:34:11.036Z,80.12
2017-10-01T00:35:08.318Z,80.11
2017-10-01T00:36:05.596Z,80.12
2017-10-01T00:37:02.842Z,80.14
2017-10-01T00:38:00.122Z,80.16
2017-10-01T00:38:59.434Z,80.16
2017-10-01T00:39:56.689Z,80.19
2017-10-01T00:40:53.965Z,80.21
2017-10-01T00:41:51.253Z,80.22
2017-10-01T00:42:50.604Z,80.24
2017-10-01T00:43:47.889Z,80.26
2017-10-01T00:44:45.133Z,80.28
2017-10-01T00:45:42.419Z,80.28
2017-10-01T00:46:39.672Z,80.30
2017-10-01T00:47:36.970Z,80.31
2017-10-01T00:48:34.222Z,80.31
2017-10-01T00:49:31.469Z,80.31
2017-10-01T00:50:28.709Z,80.32
2017-10-01T00:51:26.058Z,80.34
2017-10-01T00:52:23.348Z,80.35
2017-10-01T00:53:20.650Z,80.38
2017-10-01T00:54:17.885Z,80.37
2017-10-01T00:55:15.162Z,80.40
2017-10-01T00:56:12.417Z,80.41
2017-10-01T00:57:09.690Z,80.43
2017-10-01T00:58:06.953Z,80.42
2017-10-01T00:59:04.197Z,80.42
2017-10-01T01:00:01.435Z,80.43
2017-10-01T01:00:58.719Z,80.44
2017-10-01T01:01:55.945Z,80.45
2017-10-01T01:02:53.214Z,80.46
2017-10-01T01:03:50.453Z,80.49
2017-10-01T01:04:47.726Z,80.50
2017-10-01T01:05:44.968Z,80.50
2017-10-01T01:06:42.505Z,80.51
2017-10-01T01:07:39.758Z,80.52
2017-10-01T01:08:37.038Z,80.55
2017-10-01T01:09:34.285Z,80.57
2017-10-01T01:10:31.561Z,80.57
2017-10-01T01:11:28.798Z,80.57
2017-10-01T01:12:26.071Z,80.60
2017-10-01T01:13:23.322Z,80.60
2017-10-01T01:14:20.589Z,80.65
2017-10-01T01:15:17.813Z,80.66
2017-10-01T01:16:15.046Z,80.67
2017-10-01T01:17:12.282Z,80.66
2017-10-01T01:18:09.591Z,80.69
2017-10-01T01:19:06.810Z,80.71
2017-10-01T01:20:04.203Z,80.72
2017-10-01T01:21:01.454Z,80.74
2017-10-01T01:21:58.710Z,80.74
2017-10-01T01:22:55.957Z,80.75
2017-10-01T01:23:53.214Z,80.76
2017-10-01T01:24:50.445Z,80.77
2017-10-01T01:25:47.710Z,80.76
2017-10-01T01:26:44.958Z,80.79
2017-10-01T01:27:42.212Z,80.81
2017-10-01T01:28:39.494Z,80.82
2017-10-01T01:29:36.797Z,80.83
2017-10-01T01:30:34.038Z,80.81
2017-10-01T01:31:31.293Z,80.79
2017-10-01T01:32:28.505Z,80.78
2017-10-01T01:33:25.762Z,80.79
2017-10-01T01:34:23.004Z,80.78
2017-10-01T01:35:20.297Z,80.76
2017-10-01T01:36:17.507Z,80.77
2017-10-01T01:37:14.854Z,80.78
2017-10-01T01:38:12.098Z,80.78
2017-10-01T01:39:09.344Z,80.80
2017-10-01T01:40:06.592Z,80.81
2017-10-01T01:41:03.847Z,80.80
2017-10-01T01:42:01.113Z,80.82
2017-10-01T01:42:58.742Z,80.86
2017-10-01T01:43:55.973Z,80.89
2017-10-01T01:44:53.212Z,80.91
2017-10-01T01:45:50.457Z,80.93
2017-10-01T01:46:47.721Z,80.96
2017-10-01T01:47:44.934Z,80.99
2017-10-01T01:48:42.214Z,81.01
2017-10-01T01:49:39.437Z,81.07
2017-10-01T01:50:36.695Z,81.08
2017-10-01T01:51:33.926Z,81.10
2017-10-01T01:52:31.261Z,81.11
2017-10-01T01:53:28.515Z,81.13
2017-10-01T01:54:25.780Z,81.12
2017-10-01T01:55:23.006Z,81.14
2017-10-01T01:56:20.322Z,81.16
2017-10-01T01:57:17.534Z,81.17
2017-10-01T01:58:14.858Z,81.18
2017-10-01T01:59:14.129Z,81.20
2017-10-01T02:00:11.390Z,81.25
2017-10-01T02:01:08.974Z,81.27
2017-10-01T02:02:06.214Z,81.30
2017-10-01T02:03:03.441Z,81.31
2017-10-01T02:04:00.728Z,81.32
2017-10-01T02:04:57.960Z,81.34
2017-10-01T02:05:55.531Z,81.33
2017-10-01T02:06:52.770Z,81.35
2017-10-01T02:07:50.008Z,81.37
2017-10-01T02:08:47.266Z,81.38
2017-10-01T02:09:44.530Z,81.43
2017-10-01T02:10:41.788Z,81.43
2017-10-01T02:11:40.814Z,81.43
2017-10-01T02:12:38.062Z,81.47
2017-10-01T02:13:35.345Z,81.46
2017-10-01T02:14:32.569Z,81.50
2017-10-01T02:15:29.836Z,81.49
2017-10-01T02:16:27.046Z,81.49
2017-10-01T02:17:24.307Z,81.51
2017-10-01T02:18:21.547Z,81.54
2017-10-01T02:19:18.829Z,81.56
2017-10-01T02:20:16.029Z,81.59
2017-10-01T02:21:13.380Z,81.56
2017-10-01T02:22:10.617Z,81.59
2017-10-01T02:23:07.869Z,81.60
2017-10-01T02:24:05.132Z,81.61
2017-10-01T02:25:02.377Z,81.64
2017-10-01T02:25:59.614Z,81.64
2017-10-01T02:26:56.866Z,81.63
2017-10-01T02:27:54.102Z,81.66
2017-10-01T02:28:51.457Z,81.66
2017-10-01T02:29:48.701Z,81.68
2017-10-01T02:30:46.106Z,81.71
2017-10-01T02:31:43.331Z,81.71
2017-10-01T02:32:40.609Z,81.73
2017-10-01T02:33:37.852Z,81.72
2017-10-01T02:34:35.103Z,81.77
2017-10-01T02:35:32.326Z,81.75
2017-10-01T02:36:29.554Z,81.75
2017-10-01T02:37:26.781Z,81.78
2017-10-01T02:38:24.021Z,81.77
2017-10-01T02:39:21.272Z,81.80
2017-10-01T02:40:18.537Z,81.78
2017-10-01T02:41:15.770Z,81.79
2017-10-01T02:42:13.022Z,81.83
2017-10-01T02:43:10.242Z,81.85
2017-10-01T02:44:09.646Z,81.86
2017-10-01T02:45:06.893Z,81.87
2017-10-01T02:46:04.134Z,81.88
2017-10-01T02:47:01.375Z,81.87
2017-10-01T02:47:58.629Z,81.89
2017-10-01T02:48:55.891Z,81.92
2017-10-01T02:49:54.279Z,81.95
2017-10-01T02:50:51.506Z,81.96
2017-10-01T02:51:48.761Z,81.98
2017-10-01T02:52:45.987Z,82.02
2017-10-01T02:53:43.268Z,82.07
2017-10-01T02:54:40.498Z,82.07
2017-10-01T02:55:37.738Z,82.09
2017-10-01T02:56:34.962Z,82.11
2017-10-01T02:57:32.216Z,82.13
2017-10-01T02:58:29.467Z,82.15
2017-10-01T02:59:26.785Z,82.18
2017-10-01T03:00:24.039Z,82.17
2017-10-01T03:01:21.320Z,82.20
2017-10-01T03:02:18.570Z,82.20
2017-10-01T03:03:15.815Z,82.20
2017-10-01T03:04:13.058Z,82.22
2017-10-01T03:05:10.630Z,82.23
2017-10-01T03:06:07.846Z,82.25
2017-10-01T03:07:05.082Z,82.26
2017-10-01T03:08:02.311Z,82.27
2017-10-01T03:08:59.614Z,82.27
2017-10-01T03:09:56.845Z,82.29
2017-10-01T03:10:54.088Z,82.34
2017-10-01T03:11:51.305Z,82.35
2017-10-01T03:12:48.598Z,82.37
2017-10-01T03:13:45.821Z,82.38
2017-10-01T03:14:43.385Z,82.40
2017-10-01T03:15:40.621Z,82.42
2017-10-01T03:16:37.902Z,82.39
2017-10-01T03:17:35.150Z,82.43
2017-10-01T03:18:32.385Z,82.46
2017-10-01T03:19:31.690Z,82.47
2017-10-01T03:20:28.921Z,82.51
2017-10-01T03:21:26.174Z,82.54
2017-10-01T03:22:23.393Z,82.53
2017-10-01T03:23:22.681Z,82.55
2017-10-01T03:24:19.899Z,82.55
2017-10-01T03:25:17.165Z,82.57
2017-10-01T03:26:14.441Z,82.62
2017-10-01T03:27:11.681Z,82.62
2017-10-01T03:28:08.905Z,82.64
2017-10-01T03:29:06.254Z,82.64
2017-10-01T03:30:03.472Z,82.66
2017-10-01T03:31:00.854Z,82.69
2017-10-01T03:31:58.085Z,82.70
2017-10-01T03:32:55.457Z,82.70
2017-10-01T03:33:52.670Z,82.69
2017-10-01T03:34:49.958Z,82.70
2017-10-01T03:35:47.198Z,82.70
2017-10-01T03:36:44.465Z,82.73
2017-10-01T03:37:41.690Z,82.75
2017-10-01T03:38:39.114Z,82.75
2017-10-01T03:39:36.352Z,82.78
2017-10-01T03:40:33.650Z,82.79
2017-10-01T03:41:30.867Z,82.81
2017-10-01T03:42:28.133Z,82.83
2017-10-01T03:43:25.343Z,82.83
2017-10-01T03:44:22.638Z,82.83
2017-10-01T03:45:19.904Z,82.83
2017-10-01T03:46:19.191Z,82.84
2017-10-01T03:47:16.443Z,82.85
2017-10-01T03:48:13.702Z,82.86
2017-10-01T03:49:10.937Z,82.88
2017-10-01T03:50:08.249Z,82.88
2017-10-01T03:51:05.473Z,82.91
2017-10-01T03:52:02.723Z,82.90
2017-10-01T03:52:59.945Z,82.91
2017-10-01T03:53:57.198Z,82.94
2017-10-01T03:54:54.446Z,82.97
2017-10-01T03:55:51.706Z,82.97
2017-10-01T03:56:48.949Z,82.99
2017-10-01T03:57:46.198Z,83.00
2017-10-01T03:58:43.417Z,83.02
2017-10-01T03:59:40.706Z,83.01
2017-10-01T04:00:37.940Z,83.01
2017-10-01T04:01:35.206Z,83.03
2017-10-01T04:02:32.449Z,83.04
2017-10-01T04:03:29.710Z,83.05
2017-10-01T04:04:26.957Z,83.07
2017-10-01T04:05:24.219Z,83.10
2017-10-01T04:06:21.442Z,83.12
2017-10-01T04:07:18.702Z,83.12
2017-10-01T04:08:15.950Z,83.14
2017-10-01T04:09:13.230Z,83.16
2017-10-01T04:10:10.492Z,83.16
2017-10-01T04:11:07.741Z,83.17
2017-10-01T04:12:04.984Z,83.17
2017-10-01T04:13:02.250Z,83.20
2017-10-01T04:13:59.526Z,83.18
2017-10-01T04:14:56.833Z,83.23
2017-10-01T04:15:54.044Z,83.22
2017-10-01T04:16:51.389Z,83.23
2017-10-01T04:17:48.649Z,83.22
2017-10-01T04:18:45.922Z,83.24
2017-10-01T04:19:43.181Z,83.24
2017-10-01T04:20:40.428Z,83.26
2017-10-01T04:21:37.715Z,83.28
2017-10-01T04:22:34.977Z,83.29
2017-10-01T04:23:32.211Z,83.29
2017-10-01T04:24:29.493Z,83.33
2017-10-01T04:25:26.766Z,83.34
2017-10-01T04:26:24.088Z,83.36
2017-10-01T04:27:21.427Z,83.38
2017-10-01T04:28:18.737Z,83.38
2017-10-01T04:29:16.027Z,83.39
2017-10-01T04:30:13.365Z,83.39
2017-10-01T04:31:10.924Z,83.43
2017-10-01T04:32:08.212Z,83.43
2017-10-01T04:33:05.437Z,83.46
2017-10-01T04:34:02.690Z,83.47
2017-10-01T04:34:59.962Z,83.48
2017-10-01T04:35:57.226Z,83.47
2017-10-01T04:36:54.466Z,83.48
2017-10-01T04:37:51.709Z,83.50
2017-10-01T04:38:48.925Z,83.51
2017-10-01T04:39:46.213Z,83.49
2017-10-01T04:40:43.437Z,83.50
2017-10-01T04:41:40.695Z,83.51
2017-10-01T04:42:37.939Z,83.51
2017-10-01T04:43:35.189Z,83.52
2017-10-01T04:44:32.424Z,83.51
2017-10-01T04:45:29.710Z,83.55
2017-10-01T04:46:26.938Z,83.56
2017-10-01T04:47:24.178Z,83.56
2017-10-01T04:48:21.434Z,83.56
2017-10-01T04:49:20.737Z,83.56
2017-10-01T04:50:18.019Z,83.59
2017-10-01T04:51:15.261Z,83.60
2017-10-01T04:52:12.484Z,83.62
2017-10-01T04:53:09.757Z,83.62
2017-10-01T04:54:07.009Z,83.62
2017-10-01T04:55:04.294Z,83.63
2017-10-01T04:56:01.523Z,83.68
2017-10-01T04:56:58.825Z,83.70
2017-10-01T04:57:56.062Z,83.71
2017-10-01T04:58:53.325Z,83.73
2017-10-01T04:59:50.581Z,83.73
2017-10-01T05:00:47.855Z,83.73
2017-10-01T05:01:45.078Z,83.74
2017-10-01T05:02:42.328Z,83.78
2017-10-01T05:03:39.552Z,83.77
2017-10-01T05:04:37.041Z,83.79
2017-10-01T05:05:36.473Z,83.83
2017-10-01T05:06:33.726Z,83.83
2017-10-01T05:07:30.994Z,83.82
2017-10-01T05:08:28.241Z,83.86
2017-10-01T05:09:25.476Z,83.87
2017-10-01T05:10:22.732Z,83.87
2017-10-01T05:11:19.948Z,83.87
2017-10-01T05:12:17.215Z,83.87
2017-10-01T05:13:14.450Z,83.88
2017-10-01T05:14:11.740Z,83.88
2017-10-01T05:15:09.595Z,83.88
2017-10-01T05:16:06.831Z,83.91
2017-10-01T05:17:04.087Z,83.93
2017-10-01T05:18:01.334Z,83.95
2017-10-01T05:18:58.598Z,83.96
2017-10-01T05:19:55.902Z,83.97
2017-10-01T05:20:53.212Z,83.99
2017-10-01T05:21:50.510Z,84.00
2017-10-01T05:22:47.785Z,84.01
2017-10-01T05:23:45.046Z,84.04
2017-10-01T05:24:42.329Z,84.04
2017-10-01T05:25:39.599Z,84.07
2017-10-01T05:26:36.833Z,84.09
2017-10-01T05:27:34.077Z,84.10
2017-10-01T05:28:31.294Z,84.11
2017-10-01T05:29:28.644Z,84.10
2017-10-01T05:30:26.008Z,84.10
2017-10-01T05:31:23.791Z,84.11
2017-10-01T05:32:21.026Z,84.12
2017-10-01T05:33:18.277Z,84.12
2017-10-01T05:34:15.524Z,84.12
2017-10-01T05:35:12.826Z,84.15
2017-10-01T05:36:10.045Z,84.16
2017-10-01T05:37:07.333Z,84.17
2017-10-01T05:38:04.559Z,84.17
2017-10-01T05:39:01.801Z,84.19
2017-10-01T05:39:59.071Z,84.18
2017-10-01T05:40:56.368Z,84.19
2017-10-01T05:41:53.598Z,84.19
2017-10-01T05:42:50.894Z,84.22
2017-10-01T05:43:48.125Z,84.23
2017-10-01T05:44:45.373Z,84.25
2017-10-01T05:45:42.623Z,84.26
2017-10-01T05:46:39.919Z,84.27
2017-10-01T05:47:37.170Z,84.30
2017-10-01T05:48:34.433Z,84.30
2017-10-01T05:49:31.686Z,84.30
2017-10-01T05:50:28.950Z,84.30
2017-10-01T05:51:26.335Z,84.30
2017-10-01T05:52:23.685Z,84.29
2017-10-01T05:53:20.989Z,84.28
2017-10-01T05:54:18.327Z,84.29
2017-10-01T05:55:15.590Z,84.29
2017-10-01T05:56:12.881Z,84.27
2017-10-01T05:57:12.159Z,84.29
2017-10-01T05:58:09.414Z,84.31
2017-10-01T05:59:06.841Z,84.32
2017-10-01T06:00:04.239Z,84.34
2017-10-01T06:01:01.477Z,84.34
2017-10-01T06:01:58.721Z,84.35
2017-10-01T06:02:55.993Z,84.35
2017-10-01T06:03:53.244Z,84.34
2017-10-01T06:04:50.466Z,84.37
2017-10-01T06:05:48.095Z,84.39
2017-10-01T06:06:45.385Z,84.40
2017-10-01T06:07:42.651Z,84.39
2017-10-01T06:08:39.891Z,84.43
2017-10-01T06:09:37.232Z,84.45
2017-10-01T06:10:34.507Z,84.43
2017-10-01T06:11:31.869Z,84.42
2017-10-01T06:12:29.152Z,84.46
2017-10-01T06:13:26.430Z,84.48
2017-10-01T06:14:23.835Z,84.48
2017-10-01T06:15:21.558Z,84.47
2017-10-01T06:16:18.810Z,84.49
2017-10-01T06:17:16.059Z,84.51
2017-10-01T06:18:13.302Z,84.51
2017-10-01T06:19:10.558Z,84.53
2017-10-01T06:20:07.789Z,84.55
2017-10-01T06:21:05.062Z,84.53
2017-10-01T06:22:02.438Z,84.53
2017-10-01T06:22:59.702Z,84.54
2017-10-01T06:23:56.941Z,84.57
2017-10-01T06:24:54.213Z,84.57
2017-10-01T06:25:51.505Z,84.57
2017-10-01T06:26:48.782Z,84.57
2017-10-01T06:27:48.062Z,84.58
2017-10-01T06:28:45.329Z,84.59
2017-10-01T06:29:42.567Z,84.57
2017-10-01T06:30:39.909Z,84.59
2017-10-01T06:31:37.136Z,84.59
2017-10-01T06:32:34.385Z,84.59
2017-10-01T06:33:31.596Z,84.59
2017-10-01T06:34:28.917Z,84.60
2017-10-01T06:35:26.185Z,84.60
2017-10-01T06:36:23.454Z,84.60
2017-10-01T06:37:20.699Z,84.60
2017-10-01T06:38:17.954Z,84.61
2017-10-01T06:39:15.242Z,84.63
2017-10-01T06:40:12.502Z,84.63
2017-10-01T06:41:09.815Z,84.63
2017-10-01T06:42:07.106Z,84.65
2017-10-01T06:43:04.516Z,84.66
2017-10-01T06:44:01.861Z,84.67
2017-10-01T06:44:59.122Z,84.68
2017-10-01T06:45:56.426Z,84.67
2017-10-01T06:46:53.662Z,84.68
2017-10-01T06:47:50.926Z,84.69
2017-10-01T06:48:48.177Z,84.70
2017-10-01T06:49:45.426Z,84.71
2017-10-01T06:50:42.677Z,84.71
2017-10-01T06:51:40.039Z,84.72
2017-10-01T06:52:37.264Z,84.71
2017-10-01T06:53:34.546Z,84.70
2017-10-01T06:54:31.811Z,84.70
2017-10-01T06:55:29.079Z,84.70
2017-10-01T06:56:26.330Z,84.72
2017-10-01T06:57:23.583Z,84.73
2017-10-01T06:58:20.822Z,84.73
2017-10-01T06:59:18.076Z,84.75
2017-10-01T07:00:15.295Z,84.76
2017-10-01T07:01:12.593Z,84.75
2017-10-01T07:02:09.876Z,84.77
2017-10-01T07:03:07.126Z,84.77
2017-10-01T07:04:04.362Z,84.78
2017-10-01T07:05:01.796Z,84.79
2017-10-01T07:05:59.058Z,84.78
2017-10-01T07:06:56.321Z,84.75
2017-10-01T07:07:53.581Z,84.75
2017-10-01T07:08:50.859Z,84.78
2017-10-01T07:09:48.105Z,84.78
2017-10-01T07:10:45.413Z,84.80
2017-10-01T07:11:42.673Z,84.77
2017-10-01T07:12:39.946Z,84.77
2017-10-01T07:13:37.183Z,84.78
2017-10-01T07:14:34.437Z,84.77
2017-10-01T07:15:31.696Z,84.74
2017-10-01T07:16:29.002Z,84.78
2017-10-01T07:17:26.233Z,84.80
2017-10-01T07:18:23.482Z,84.80
2017-10-01T07:19:20.725Z,84.81
2017-10-01T07:20:17.989Z,84.80
2017-10-01T07:21:15.249Z,84.81
2017-10-01T07:22:12.542Z,84.83
2017-10-01T07:23:09.796Z,84.83
2017-10-01T07:24:07.087Z,84.86
2017-10-01T07:25:04.373Z,84.88
2017-10-01T07:26:01.643Z,84.90
2017-10-01T07:26:58.938Z,84.91
2017-10-01T07:27:56.189Z,84.91
2017-10-01T07:28:53.416Z,84.92
2017-10-01T07:29:50.673Z,84.92
2017-10-01T07:30:47.899Z,84.91
2017-10-01T07:31:45.198Z,84.88
2017-10-01T07:32:42.429Z,84.88
2017-10-01T07:33:39.685Z,84.88
2017-10-01T07:34:36.929Z,84.86
2017-10-01T07:35:34.211Z,84.83
2017-10-01T07:36:31.457Z,84.85
2017-10-01T07:37:28.705Z,84.87
2017-10-01T07:38:25.928Z,84.87
2017-10-01T07:39:23.182Z,84.86
2017-10-01T07:40:20.393Z,84.88
2017-10-01T07:41:17.693Z,84.88
2017-10-01T07:42:14.977Z,84.90
2017-10-01T07:43:12.210Z,84.94
2017-10-01T07:44:09.449Z,84.94
2017-10-01T07:45:06.736Z,84.96
2017-10-01T07:46:04.001Z,84.96
2017-10-01T07:47:01.313Z,84.98
2017-10-01T07:47:58.600Z,84.96
2017-10-01T07:48:55.957Z,85.00
2017-10-01T07:49:53.199Z,85.01
2017-10-01T07:50:50.486Z,85.02
2017-10-01T07:51:47.787Z,85.03
2017-10-01T07:52:45.077Z,85.05
2017-10-01T07:53:42.316Z,85.05
2017-10-01T07:54:39.703Z,85.04
2017-10-01T07:55:36.934Z,85.06
2017-10-01T07:56:34.193Z,85.06
2017-10-01T07:57:31.437Z,85.06
2017-10-01T07:58:28.730Z,85.04
2017-10-01T07:59:26.116Z,85.05
2017-10-01T08:00:23.945Z,85.08
2017-10-01T08:01:21.232Z,85.09
2017-10-01T08:02:18.525Z,85.13
2017-10-01T08:03:15.825Z,85.12
2017-10-01T08:04:13.296Z,85.10
2017-10-01T08:05:10.672Z,85.14
2017-10-01T08:06:07.941Z,85.16
2017-10-01T08:07:05.221Z,85.15
2017-10-01T08:08:02.514Z,85.16
2017-10-01T08:08:59.769Z,85.16
2017-10-01T08:09:57.021Z,85.15
2017-10-01T08:10:54.303Z,85.16
2017-10-01T08:11:51.633Z,85.15
2017-10-01T08:12:48.866Z,85.14
2017-10-01T08:13:46.093Z,85.13
2017-10-01T08:14:43.302Z,85.11
2017-10-01T08:15:40.577Z,85.14
2017-10-01T08:16:37.826Z,85.15
2017-10-01T08:17:35.090Z,85.16
2017-10-01T08:18:32.313Z,85.16
2017-10-01T08:19:29.565Z,85.18
2017-10-01T08:20:26.795Z,85.20
2017-10-01T08:21:24.058Z,85.20
2017-10-01T08:22:21.324Z,85.18
2017-10-01T08:23:18.582Z,85.20
2017-10-01T08:24:15.818Z,85.20
2017-10-01T08:25:13.129Z,85.23
2017-10-01T08:26:10.441Z,85.24
2017-10-01T08:27:07.843Z,85.25
2017-10-01T08:28:05.082Z,85.25
2017-10-01T08:29:02.341Z,85.26
2017-10-01T08:29:59.567Z,85.26
2017-10-01T08:30:57.414Z,85.26
2017-10-01T08:31:54.651Z,85.28
2017-10-01T08:32:51.931Z,85.27
2017-10-01T08:33:49.236Z,85.24
2017-10-01T08:34:46.547Z,85.28
2017-10-01T08:35:43.805Z,85.27
2017-10-01T08:36:41.042Z,85.27
2017-10-01T08:37:38.310Z,85.26
2017-10-01T08:38:35.578Z,85.27
2017-10-01T08:39:32.795Z,85.26
2017-10-01T08:40:30.071Z,85.25
2017-10-01T08:41:27.314Z,85.21
2017-10-01T08:42:24.620Z,85.22
2017-10-01T08:43:21.840Z,85.20
2017-10-01T08:44:19.112Z,85.19
2017-10-01T08:45:16.353Z,85.23
2017-10-01T08:46:13.606Z,85.25
2017-10-01T08:47:10.979Z,85.26
2017-10-01T08:48:08.275Z,85.27
2017-10-01T08:49:05.605Z,85.33
2017-10-01T08:50:02.894Z,85.34
2017-10-01T08:51:00.161Z,85.35
2017-10-01T08:51:57.414Z,85.38
2017-10-01T08:52:54.741Z,85.40
2017-10-01T08:53:52.412Z,85.42
2017-10-01T08:54:49.845Z,85.43
2017-10-01T08:55:47.129Z,85.45
2017-10-01T08:56:44.379Z,85.46
2017-10-01T08:57:41.661Z,85.47
2017-10-01T08:58:39.134Z,85.48
2017-10-01T08:59:36.581Z,85.47
2017-10-01T09:00:33.958Z,85.49
2017-10-01T09:01:31.238Z,85.49
2017-10-01T09:02:28.481Z,85.49
2017-10-01T09:03:25.721Z,85.50
2017-10-01T09:04:22.945Z,85.49
2017-10-01T09:05:20.552Z,85.50
2017-10-01T09:06:17.820Z,85.48
2017-10-01T09:07:15.102Z,85.49
2017-10-01T09:08:12.404Z,85.48
2017-10-01T09:09:09.703Z,85.53
2017-10-01T09:10:06.933Z,85.54
2017-10-01T09:11:04.190Z,85.53
2017-10-01T09:12:01.440Z,85.54
2017-10-01T09:12:58.711Z,85.55
2017-10-01T09:13:55.930Z,85.58
2017-10-01T09:14:53.170Z,85.56
2017-10-01T09:15:51.152Z,85.62
2017-10-01T09:16:48.446Z,85.63
2017-10-01T09:17:45.994Z,85.64
2017-10-01T09:18:43.291Z,85.63
2017-10-01T09:19:40.597Z,85.66
2017-10-01T09:20:37.954Z,85.63
2017-10-01T09:21:35.267Z,85.67
2017-10-01T09:22:32.696Z,85.67
2017-10-01T09:23:29.930Z,85.69
2017-10-01T09:24:29.347Z,85.72
2017-10-01T09:25:26.594Z,85.72
2017-10-01T09:26:23.845Z,85.74
2017-10-01T09:27:23.170Z,85.75
2017-10-01T09:28:20.456Z,85.77
2017-10-01T09:29:17.702Z,85.78
2017-10-01T09:30:14.941Z,85.80
2017-10-01T09:31:12.171Z,85.80
2017-10-01T09:32:09.643Z,85.84
2017-10-01T09:33:06.992Z,85.84
2017-10-01T09:34:04.473Z,85.85
2017-10-01T09:35:01.760Z,85.85
2017-10-01T09:35:59.065Z,85.87
2017-10-01T09:36:56.337Z,85.89
2017-10-01T09:37:53.655Z,85.89
2017-10-01T09:38:50.902Z,85.91
2017-10-01T09:39:48.173Z,85.90
2017-10-01T09:40:46.321Z,85.92
2017-10-01T09:41:43.582Z,85.94
2017-10-01T09:42:40.830Z,85.95
2017-10-01T09:43:38.077Z,85.97
2017-10-01T09:44:35.341Z,86.00
2017-10-01T09:45:32.644Z,86.05
2017-10-01T09:46:29.898Z,86.06
2017-10-01T09:47:27.170Z,86.07
2017-10-01T09:48:24.445Z,86.09
2017-10-01T09:49:21.749Z,86.12
2017-10-01T09:50:18.997Z,86.13
2017-10-01T09:51:16.239Z,86.13
2017-10-01T09:52:13.477Z,86.14
2017-10-01T09:53:10.805Z,86.13
2017-10-01T09:54:08.033Z,86.17
2017-10-01T09:55:05.270Z,86.17
2017-10-01T09:56:02.493Z,86.19
2017-10-01T09:56:59.738Z,86.20
2017-10-01T09:57:56.994Z,86.21
2017-10-01T09:58:54.665Z,86.21
2017-10-01T09:59:51.904Z,86.24
2017-10-01T10:00:49.166Z,86.25
2017-10-01T10:01:46.386Z,86.26
2017-10-01T10:02:43.651Z,86.26
2017-10-01T10:03:40.889Z,86.23
2017-10-01T10:04:38.169Z,86.25
2017-10-01T10:05:35.403Z,86.24
2017-10-01T10:06:32.661Z,86.29
2017-10-01T10:07:30.034Z,86.31
2017-10-01T10:08:27.439Z,86.32
2017-10-01T10:09:24.679Z,86.34
2017-10-01T10:10:21.926Z,86.35
2017-10-01T10:11:19.159Z,86.33
2017-10-01T10:12:16.389Z,86.36
2017-10-01T10:13:18.762Z,86.35
2017-10-01T10:14:21.126Z,86.37
2017-10-01T10:15:18.436Z,86.37
2017-10-01T10:18:24.053Z,91.11
2017-10-01T10:19:21.667Z,85.83
2017-10-01T10:20:18.902Z,82.40
2017-10-01T10:21:16.121Z,78.80
2017-10-01T10:22:13.358Z,76.76
2017-10-01T10:23:41.017Z,73.87
2017-10-01T10:24:38.873Z,72.16
2017-10-01T10:25:36.253Z,70.76
2017-10-01T10:26:33.667Z,69.91
2017-10-01T10:27:30.901Z,69.47
2017-10-01T10:28:28.116Z,68.83
2017-10-01T10:29:27.703Z,68.30
2017-10-01T10:30:27.104Z,67.73
2017-10-01T10:31:26.220Z,67.34
2017-10-01T10:32:24.649Z,67.01
2017-10-01T10:33:22.020Z,66.77
2017-10-01T10:34:19.818Z,66.56
2017-10-01T10:35:17.543Z,66.30
2017-10-01T10:36:16.284Z,66.17
2017-10-01T10:37:14.320Z,65.94
2017-10-01T10:38:12.520Z,65.85
2017-10-01T10:39:11.385Z,65.84
2017-10-01T10:40:08.921Z,65.59
2017-10-01T10:41:06.678Z,65.38
2017-10-01T10:42:04.481Z,65.20
2017-10-01T10:43:03.566Z,65.18
2017-10-01T10:44:03.191Z,64.94
2017-10-01T10:45:02.964Z,64.92
2017-10-01T10:46:00.901Z,64.97
2017-10-01T10:46:59.703Z,64.69
2017-10-01T10:47:57.197Z,64.61
2017-10-01T10:48:55.045Z,64.65
2017-10-01T10:49:52.757Z,64.53
2017-10-01T10:50:53.787Z,64.79
2017-10-01T10:51:51.425Z,64.70
2017-10-01T10:52:48.657Z,64.68
2017-10-01T10:53:45.889Z,64.78
2017-10-01T10:54:43.881Z,64.80
2017-10-01T10:55:45.914Z,64.89
2017-10-01T10:56:46.854Z,64.83
2017-10-01T10:57:44.074Z,64.85
2017-10-01T10:58:42.064Z,64.81
2017-10-01T10:59:40.137Z,64.79
2017-10-01T11:00:37.538Z,64.77
2017-10-01T11:01:35.105Z,64.72
2017-10-01T11:02:32.541Z,64.63
2017-10-01T11:03:30.381Z,64.69
2017-10-01T11:04:28.177Z,64.61
2017-10-01T11:05:26.136Z,64.64
2017-10-01T11:06:25.127Z,64.62
2017-10-01T11:07:25.228Z,64.60
2017-10-01T11:08:23.287Z,64.53
2017-10-01T11:09:22.169Z,64.54
2017-10-01T11:10:20.947Z,64.47
2017-10-01T11:11:18.500Z,64.46
2017-10-01T11:12:17.887Z,64.46
2017-10-01T11:13:16.590Z,64.45
2017-10-01T11:14:14.915Z,64.43
2017-10-01T11:15:15.849Z,64.38
2017-10-01T11:16:15.251Z,64.38
2017-10-01T11:17:12.745Z,64.34
2017-10-01T11:18:10.667Z,64.33
2017-10-01T11:19:08.821Z,64.30
2017-10-01T11:20:06.760Z,64.28
2017-10-01T11:21:04.029Z,64.43
2017-10-01T11:22:01.517Z,64.07
2017-10-01T11:22:58.745Z,64.14
2017-10-01T11:23:56.017Z,64.07
2017-10-01T11:24:53.561Z,64.09
2017-10-01T11:26:48.894Z,65.81
2017-10-01T11:28:07.872Z,63.57
2017-10-01T11:29:11.971Z,63.61
2017-10-01T11:34:36.405Z,62.82
2017-10-01T11:35:43.975Z,63.09
2017-10-01T11:36:50.250Z,63.95
2017-10-01T11:37:57.083Z,65.15
2017-10-01T11:39:03.921Z,66.58
2017-10-01T11:40:10.849Z,67.66
2017-10-01T11:41:17.750Z,68.59
2017-10-01T11:42:24.551Z,69.44
2017-10-01T11:43:31.460Z,70.18
2017-10-01T11:44:38.353Z,70.68
2017-10-01T11:45:45.216Z,71.23
2017-10-01T11:46:51.989Z,71.55
2017-10-01T11:47:58.762Z,71.98
2017-10-01T11:49:05.788Z,72.65
2017-10-01T11:50:13.063Z,73.18
2017-10-01T11:51:19.388Z,73.85
2017-10-01T11:52:26.426Z,74.27
2017-10-01T11:53:33.338Z,74.81
2017-10-01T11:54:40.226Z,74.85
2017-10-01T11:55:47.037Z,75.31
2017-10-01T11:56:53.863Z,75.92
2017-10-01T11:58:00.649Z,76.38
2017-10-01T11:59:07.441Z,76.77
2017-10-01T12:00:14.238Z,76.94
2017-10-01T12:01:21.025Z,77.47
2017-10-01T12:02:27.823Z,77.74
2017-10-01T12:03:34.599Z,77.76
2017-10-01T12:04:41.397Z,78.16
2017-10-01T12:05:48.360Z,78.57
2017-10-01T12:06:55.125Z,79.07
2017-10-01T12:08:01.970Z,79.24
2017-10-01T12:09:08.737Z,79.45
2017-10-01T12:10:15.765Z,79.79
2017-10-01T12:11:22.563Z,80.26
2017-10-01T12:12:29.534Z,80.12
2017-10-01T12:13:36.501Z,80.26
2017-10-01T12:14:43.273Z,80.38
2017-10-01T12:15:50.182Z,80.69
2017-10-01T12:16:56.982Z,80.72
2017-10-01T12:18:03.807Z,80.96
2017-10-01T12:19:10.602Z,81.11
2017-10-01T12:20:17.440Z,81.06
2017-10-01T12:21:24.271Z,81.09
2017-10-01T12:22:31.064Z,81.39
2017-10-01T12:23:37.895Z,81.69
2017-10-01T12:24:44.719Z,81.89
2017-10-01T12:25:51.537Z,81.80
2017-10-01T12:26:58.298Z,81.70
2017-10-01T12:28:05.121Z,81.77
2017-10-01T12:29:11.963Z,81.98
2017-10-01T12:30:18.794Z,82.09
2017-10-01T12:31:25.582Z,82.26
2017-10-01T12:32:32.365Z,82.26
2017-10-01T12:33:39.230Z,82.24
2017-10-01T12:34:46.150Z,82.25
2017-10-01T12:35:52.966Z,82.42
2017-10-01T12:36:59.820Z,82.28